createdAt,value
2022-08-14T00:02:27.187Z,28.39
2022-08-14T00:04:55.471Z,28.23
2022-08-14T00:07:23.305Z,28.39
2022-08-14T00:10:01.674Z,28.38
2022-08-14T00:12:39.765Z,28.39
2022-08-14T00:15:15.356Z,28.38
2022-08-14T00:17:47.384Z,28.39
2022-08-14T00:20:23.873Z,28.40
2022-08-14T00:22:58.389Z,28.39
2022-08-14T00:25:30.607Z,28.39
2022-08-14T00:28:11.123Z,28.38
2022-08-14T00:30:45.109Z,28.35
2022-08-14T00:33:16.186Z,28.38
2022-08-14T00:36:37.372Z,28.39
2022-08-14T00:38:34.791Z,28.38
2022-08-14T00:41:03.643Z,28.37
2022-08-14T00:43:32.585Z,28.21
2022-08-14T00:46:05.268Z,28.38
2022-08-14T00:48:36.988Z,28.37
2022-08-14T00:51:07.668Z,28.38
2022-08-14T00:53:36.219Z,28.30
2022-08-14T00:56:07.033Z,28.37
2022-08-14T00:58:36.360Z,28.36
2022-08-14T01:01:17.040Z,28.37
2022-08-14T01:03:46.261Z,28.36
2022-08-14T01:06:21.233Z,28.37
2022-08-14T01:08:57.928Z,28.37
2022-08-14T01:11:35.277Z,28.37
2022-08-14T01:14:05.028Z,28.37
2022-08-14T01:16:53.057Z,28.22
2022-08-14T01:19:41.467Z,28.38
2022-08-14T01:22:12.591Z,28.36
2022-08-14T01:24:41.362Z,28.37
2022-08-14T01:27:18.072Z,28.36
2022-08-14T01:30:03.406Z,28.30
2022-08-14T01:32:37.490Z,28.36
2022-08-14T01:35:18.128Z,28.30
2022-08-14T01:37:59.771Z,28.33
2022-08-14T01:40:36.588Z,28.35
2022-08-14T01:43:18.898Z,28.35
2022-08-14T01:46:05.999Z,28.33
2022-08-14T01:48:37.181Z,28.34
2022-08-14T01:51:19.260Z,28.35
2022-08-14T01:53:54.937Z,28.35
2022-08-14T01:56:37.320Z,28.33
2022-08-14T01:59:07.640Z,28.35
2022-08-14T02:01:41.901Z,28.35
2022-08-14T02:04:20.481Z,28.35
2022-08-14T02:06:58.524Z,28.34
2022-08-14T02:09:27.965Z,28.35
2022-08-14T02:12:00.077Z,28.02
2022-08-14T02:14:32.084Z,28.35
2022-08-14T02:17:00.401Z,28.34
2022-08-14T02:19:31.774Z,28.35
2022-08-14T02:22:03.351Z,28.33
2022-08-14T02:24:40.037Z,28.21
2022-08-14T02:28:24.614Z,28.35
2022-08-14T02:29:59.954Z,28.34
2022-08-14T02:32:30.581Z,27.78
2022-08-14T02:35:07.244Z,28.34
2022-08-14T02:37:47.443Z,28.35
2022-08-14T02:40:18.374Z,28.34
2022-08-14T02:42:54.013Z,28.34
2022-08-14T02:45:24.134Z,28.35
2022-08-14T02:47:53.736Z,28.35
2022-08-14T02:50:27.045Z,28.06
2022-08-14T02:52:57.193Z,28.34
2022-08-14T02:55:27.245Z,28.33
2022-08-14T02:58:03.002Z,28.35
2022-08-14T03:00:35.236Z,28.35
2022-08-14T03:03:07.970Z,28.33
2022-08-14T03:05:37.211Z,28.33
2022-08-14T03:08:11.122Z,28.33
2022-08-14T03:10:41.869Z,28.33
2022-08-14T03:13:19.019Z,28.30
2022-08-14T03:15:49.242Z,28.32
2022-08-14T03:18:31.182Z,28.33
2022-08-14T03:21:01.336Z,28.33
2022-08-14T03:23:37.709Z,28.34
2022-08-14T03:26:12.594Z,28.34
2022-08-14T03:28:46.695Z,28.34
2022-08-14T03:31:16.071Z,28.34
2022-08-14T03:33:44.183Z,28.33
2022-08-14T03:37:38.143Z,28.32
2022-08-14T03:39:14.409Z,28.33
2022-08-14T03:41:52.383Z,27.68
2022-08-14T03:45:18.931Z,28.33
2022-08-14T03:47:08.413Z,28.33
2022-08-14T03:49:42.204Z,28.33
2022-08-14T03:52:28.076Z,28.33
2022-08-14T03:54:59.745Z,28.32
2022-08-14T03:57:36.991Z,28.32
2022-08-14T04:00:13.812Z,28.33
2022-08-14T04:02:57.410Z,28.33
2022-08-14T04:05:26.210Z,28.32
2022-08-14T04:08:00.353Z,28.32
2022-08-14T04:10:42.259Z,28.32
2022-08-14T04:13:11.476Z,28.31
2022-08-14T04:15:56.230Z,28.32
2022-08-14T04:18:27.192Z,28.32
2022-08-14T04:20:55.878Z,28.32
2022-08-14T04:23:29.775Z,28.32
2022-08-14T04:26:04.544Z,28.31
2022-08-14T04:29:07.932Z,28.32
2022-08-14T04:32:58.358Z,28.32
2022-08-14T04:34:20.886Z,28.16
2022-08-14T04:37:09.436Z,28.32
2022-08-14T04:39:57.196Z,28.24
2022-08-14T04:42:46.960Z,28.23
2022-08-14T04:45:21.368Z,28.17
2022-08-14T04:48:06.698Z,28.30
2022-08-14T04:50:44.525Z,28.24
2022-08-14T04:53:13.843Z,28.31
2022-08-14T04:55:42.985Z,28.30
2022-08-14T04:58:21.691Z,28.14
2022-08-14T05:01:00.197Z,28.31
2022-08-14T05:03:29.065Z,28.31
2022-08-14T05:05:58.378Z,28.30
2022-08-14T05:08:31.682Z,28.30
2022-08-14T05:11:13.514Z,28.31
2022-08-14T05:16:33.075Z,28.31
2022-08-14T05:19:18.525Z,28.30
2022-08-14T05:21:59.395Z,28.31
2022-08-14T05:24:28.763Z,27.64
2022-08-14T05:26:56.672Z,28.29
2022-08-14T05:29:24.508Z,28.30
2022-08-14T05:31:58.098Z,28.31
2022-08-14T05:34:31.728Z,28.30
2022-08-14T05:37:02.977Z,28.30
2022-08-14T05:39:31.987Z,28.30
2022-08-14T05:42:00.714Z,28.30
2022-08-14T05:44:30.785Z,28.32
2022-08-14T05:47:00.301Z,28.31
2022-08-14T05:49:32.634Z,28.32
2022-08-14T05:52:02.447Z,28.31
2022-08-14T05:54:35.728Z,28.21
2022-08-14T05:57:04.581Z,28.31
2022-08-14T05:59:38.807Z,28.30
2022-08-14T06:02:09.991Z,28.31
2022-08-14T06:04:38.629Z,28.31
2022-08-14T06:07:06.635Z,28.31
2022-08-14T06:09:35.511Z,28.30
2022-08-14T06:12:09.043Z,28.05
2022-08-14T06:14:36.879Z,28.30
2022-08-14T06:17:05.594Z,28.31
2022-08-14T06:19:34.766Z,28.24
2022-08-14T06:22:02.919Z,28.31
2022-08-14T06:24:34.825Z,28.31
2022-08-14T06:27:07.689Z,28.30
2022-08-14T06:29:37.979Z,28.29
2022-08-14T06:32:36.478Z,28.30
2022-08-14T06:35:03.922Z,28.15
2022-08-14T06:37:43.253Z,28.30
2022-08-14T06:40:25.519Z,28.28
2022-08-14T06:42:56.564Z,28.31
2022-08-14T06:45:26.491Z,28.31
2022-08-14T06:47:55.374Z,28.09
2022-08-14T06:50:30.226Z,28.31
2022-08-14T06:52:58.475Z,28.31
2022-08-14T06:55:27.959Z,28.30
2022-08-14T06:57:57.654Z,28.32
2022-08-14T07:00:31.059Z,28.31
2022-08-14T07:03:31.205Z,28.31
2022-08-14T07:06:00.419Z,28.25
2022-08-14T07:08:31.130Z,28.32
2022-08-14T07:11:00.690Z,28.05
2022-08-14T07:13:30.676Z,28.32
2022-08-14T07:16:00.675Z,28.19
2022-08-14T07:18:34.399Z,28.30
2022-08-14T07:21:05.328Z,28.30
2022-08-14T07:23:35.293Z,28.30
2022-08-14T07:26:08.198Z,28.29
2022-08-14T07:28:43.612Z,28.30
2022-08-14T07:31:13.401Z,28.31
2022-08-14T07:33:50.736Z,28.31
2022-08-14T07:36:30.213Z,28.30
2022-08-14T07:38:59.260Z,28.30
2022-08-14T07:41:33.690Z,28.18
2022-08-14T07:44:29.039Z,28.30
2022-08-14T07:46:50.214Z,28.30
2022-08-14T07:49:18.454Z,28.31
2022-08-14T07:51:49.282Z,28.31
2022-08-14T07:54:23.350Z,28.30
2022-08-14T07:57:00.112Z,28.31
2022-08-14T07:59:41.348Z,28.27
2022-08-14T08:02:17.145Z,28.32
2022-08-14T08:04:49.674Z,28.27
2022-08-14T08:07:18.926Z,28.30
2022-08-14T08:09:53.073Z,28.32
2022-08-14T08:12:26.178Z,28.32
2022-08-14T08:15:02.888Z,28.31
2022-08-14T08:17:38.839Z,28.32
2022-08-14T08:20:16.776Z,28.32
2022-08-14T08:22:49.932Z,28.22
2022-08-14T08:25:24.073Z,28.30
2022-08-14T08:27:56.755Z,28.27
2022-08-14T08:30:24.977Z,28.30
2022-08-14T08:32:53.531Z,28.31
2022-08-14T08:35:21.718Z,28.30
2022-08-14T08:37:53.674Z,28.20
2022-08-14T08:40:31.414Z,28.21
2022-08-14T08:43:00.367Z,28.31
2022-08-14T08:45:29.175Z,28.30
2022-08-14T08:47:56.936Z,28.30
2022-08-14T08:50:31.858Z,28.13
2022-08-14T08:53:02.222Z,28.20
2022-08-14T08:55:32.277Z,28.31
2022-08-14T08:58:04.404Z,28.20
2022-08-14T09:00:34.934Z,28.31
2022-08-14T09:03:06.136Z,28.31
2022-08-14T09:05:34.771Z,28.31
2022-08-14T09:08:30.629Z,28.33
2022-08-14T09:11:01.556Z,28.32
2022-08-14T09:13:30.746Z,28.31
2022-08-14T09:16:18.807Z,28.32
2022-08-14T09:18:47.182Z,28.31
2022-08-14T09:21:16.136Z,28.32
2022-08-14T09:24:27.460Z,28.32
2022-08-14T09:26:33.517Z,28.31
2022-08-14T09:29:01.420Z,28.31
2022-08-14T09:31:42.690Z,28.29
2022-08-14T09:34:27.858Z,28.31
2022-08-14T09:37:18.777Z,28.14
2022-08-14T09:39:53.760Z,28.31
2022-08-14T09:42:33.206Z,28.12
2022-08-14T09:45:13.889Z,28.32
2022-08-14T09:47:45.693Z,28.23
2022-08-14T09:50:18.339Z,28.31
2022-08-14T09:52:54.955Z,28.31
2022-08-14T09:55:27.899Z,28.32
2022-08-14T09:58:08.453Z,28.12
2022-08-14T10:00:45.382Z,28.33
2022-08-14T10:03:13.332Z,28.32
2022-08-14T10:05:41.660Z,28.33
2022-08-14T10:08:25.368Z,28.33
2022-08-14T10:11:02.433Z,28.28
2022-08-14T10:13:43.078Z,28.24
2022-08-14T10:16:25.783Z,28.34
2022-08-14T10:19:09.590Z,28.25
2022-08-14T10:21:38.818Z,28.02
2022-08-14T10:24:36.359Z,28.17
2022-08-14T10:27:06.985Z,28.23
2022-08-14T10:29:36.059Z,28.34
2022-08-14T10:32:17.614Z,27.91
2022-08-14T10:34:47.109Z,28.34
2022-08-14T10:37:22.976Z,28.34
2022-08-14T10:40:05.872Z,28.33
2022-08-14T10:42:41.156Z,28.34
2022-08-14T10:45:21.531Z,28.34
2022-08-14T10:48:08.010Z,28.34
2022-08-14T10:50:39.269Z,28.02
2022-08-14T10:53:08.506Z,28.33
2022-08-14T10:55:44.960Z,28.35
2022-08-14T10:58:15.181Z,28.34
2022-08-14T11:00:56.954Z,28.34
2022-08-14T11:03:26.854Z,28.16
2022-08-14T11:06:18.683Z,28.35
2022-08-14T11:08:46.852Z,28.25
2022-08-14T11:11:14.961Z,28.36
2022-08-14T11:13:47.269Z,27.95
2022-08-14T11:16:16.064Z,28.36
2022-08-14T11:18:45.922Z,28.36
2022-08-14T11:21:23.173Z,28.31
2022-08-14T11:23:53.465Z,28.14
2022-08-14T11:26:22.778Z,28.38
2022-08-14T11:28:53.665Z,28.38
2022-08-14T11:31:24.502Z,28.39
2022-08-14T11:33:57.820Z,28.38
2022-08-14T11:37:02.919Z,28.38
2022-08-14T11:39:33.298Z,28.38
2022-08-14T11:42:55.168Z,28.38
2022-08-14T11:44:53.615Z,28.37
2022-08-14T11:47:24.798Z,28.39
2022-08-14T11:49:55.044Z,28.23
2022-08-14T11:52:23.225Z,28.38
2022-08-14T11:54:58.188Z,28.39
2022-08-14T11:57:26.026Z,28.35
2022-08-14T12:00:04.773Z,28.39
2022-08-14T12:03:02.548Z,28.39
2022-08-14T12:05:35.968Z,28.38
2022-08-14T12:08:11.852Z,28.21
2022-08-14T12:10:43.419Z,28.39
2022-08-14T12:13:12.815Z,28.37
2022-08-14T12:15:45.017Z,28.39
2022-08-14T12:18:19.523Z,28.39
2022-08-14T12:20:52.932Z,28.38
2022-08-14T12:23:27.658Z,28.40
2022-08-14T12:26:31.497Z,28.37
2022-08-14T12:28:59.749Z,28.39
2022-08-14T12:31:44.190Z,28.40
2022-08-14T12:34:14.885Z,28.40
2022-08-14T12:36:48.679Z,28.41
2022-08-14T12:39:20.291Z,28.41
2022-08-14T12:41:53.697Z,28.01
2022-08-14T12:44:30.223Z,28.41
2022-08-14T12:47:06.265Z,28.40
2022-08-14T12:49:35.100Z,28.39
2022-08-14T12:52:03.945Z,28.41
2022-08-14T12:54:32.435Z,28.41
2022-08-14T12:57:08.174Z,28.40
2022-08-14T12:59:37.268Z,28.41
2022-08-14T13:02:26.178Z,28.41
2022-08-14T13:04:55.978Z,28.41
2022-08-14T13:07:25.045Z,28.41
2022-08-14T13:09:55.714Z,28.40
2022-08-14T13:12:33.617Z,28.40
2022-08-14T13:15:09.029Z,28.42
2022-08-14T13:17:42.638Z,28.42
2022-08-14T13:20:24.364Z,28.42
2022-08-14T13:22:53.156Z,28.42
2022-08-14T13:25:21.854Z,28.16
2022-08-14T13:27:51.267Z,28.38
2022-08-14T13:30:24.367Z,28.25
2022-08-14T13:32:53.914Z,28.42
2022-08-14T13:35:22.609Z,28.42
2022-08-14T13:37:52.465Z,28.43
2022-08-14T13:40:26.559Z,28.43
2022-08-14T13:42:55.460Z,28.37
2022-08-14T13:45:27.563Z,28.43
2022-08-14T13:48:32.159Z,28.44
2022-08-14T13:51:01.958Z,28.02
2022-08-14T13:53:33.082Z,28.41
2022-08-14T13:56:01.471Z,28.44
2022-08-14T13:58:34.424Z,28.14
2022-08-14T14:01:02.743Z,28.43
2022-08-14T14:03:35.290Z,28.44
2022-08-14T14:06:03.705Z,28.44
2022-08-14T14:08:43.154Z,28.44
2022-08-14T14:11:14.207Z,28.44
2022-08-14T14:13:45.364Z,28.44
2022-08-14T14:16:15.588Z,28.43
2022-08-14T14:18:56.196Z,28.44
2022-08-14T14:21:26.588Z,28.45
2022-08-14T14:23:56.866Z,28.44
2022-08-14T14:26:25.203Z,28.45
2022-08-14T14:28:56.511Z,28.43
2022-08-14T14:31:29.907Z,28.45
2022-08-14T14:34:07.555Z,28.45
2022-08-14T14:36:49.959Z,28.45
2022-08-14T14:39:20.243Z,28.46
2022-08-14T14:41:50.309Z,28.45
2022-08-14T14:44:25.340Z,28.45
2022-08-14T14:46:54.845Z,28.46
2022-08-14T14:49:42.195Z,28.37
2022-08-14T14:52:27.159Z,28.44
2022-08-14T14:55:02.760Z,28.45
2022-08-14T14:57:34.849Z,28.45
2022-08-14T15:00:03.648Z,28.44
2022-08-14T15:02:36.676Z,28.46
2022-08-14T15:05:08.089Z,28.44
2022-08-14T15:07:36.130Z,28.45
2022-08-14T15:10:05.009Z,28.41
2022-08-14T15:12:56.540Z,28.44
2022-08-14T15:15:21.367Z,28.45
2022-08-14T15:17:50.661Z,28.45
2022-08-14T15:20:30.668Z,28.44
2022-08-14T15:23:00.940Z,28.45
2022-08-14T15:25:36.417Z,28.44
2022-08-14T15:28:12.728Z,28.45
2022-08-14T15:30:40.938Z,28.44
2022-08-14T15:33:09.573Z,28.44
2022-08-14T15:35:44.852Z,28.45
2022-08-14T15:38:13.811Z,28.45
2022-08-14T15:40:51.630Z,28.45
2022-08-14T15:43:25.511Z,28.45
2022-08-14T15:45:55.646Z,28.44
2022-08-14T15:48:24.115Z,28.45
2022-08-14T15:50:54.125Z,28.46
2022-08-14T15:53:23.557Z,28.47
2022-08-14T15:55:53.033Z,28.46
2022-08-14T15:58:21.133Z,28.47
2022-08-14T16:01:07.479Z,28.46
2022-08-14T16:03:39.819Z,28.46
2022-08-14T16:06:15.586Z,28.46
2022-08-14T16:08:46.314Z,28.46
2022-08-14T16:11:17.999Z,28.47
2022-08-14T16:13:47.696Z,28.42
2022-08-14T16:16:47.243Z,28.47
2022-08-14T16:19:10.709Z,28.47
2022-08-14T16:22:01.613Z,28.46
2022-08-14T16:24:33.318Z,28.24
2022-08-14T16:27:01.672Z,28.38
2022-08-14T16:29:29.785Z,28.47
2022-08-14T16:31:59.091Z,28.35
2022-08-14T16:34:46.328Z,28.49
2022-08-14T16:37:18.351Z,28.49
2022-08-14T16:39:46.889Z,28.48
2022-08-14T16:42:39.250Z,28.50
2022-08-14T16:45:06.465Z,28.51
2022-08-14T16:47:36.410Z,28.53
2022-08-14T16:50:08.690Z,28.53
2022-08-14T16:52:54.620Z,28.53
2022-08-14T16:55:30.102Z,28.22
2022-08-14T16:57:59.183Z,28.54
2022-08-14T17:00:29.138Z,28.55
2022-08-14T17:03:04.009Z,28.55
2022-08-14T17:05:33.676Z,28.55
2022-08-14T17:08:31.849Z,28.49
2022-08-14T17:11:12.410Z,28.55
2022-08-14T17:13:59.123Z,28.49
2022-08-14T17:16:30.977Z,28.54
2022-08-14T17:19:01.736Z,28.54
2022-08-14T17:21:32.461Z,28.53
2022-08-14T17:24:55.769Z,28.54
2022-08-14T17:26:55.175Z,28.55
2022-08-14T17:29:29.275Z,28.54
2022-08-14T17:32:01.801Z,28.54
2022-08-14T17:34:45.292Z,28.54
2022-08-14T17:37:24.804Z,28.54
2022-08-14T17:40:16.061Z,28.28
2022-08-14T17:43:01.608Z,28.54
2022-08-14T17:45:43.326Z,28.53
2022-08-14T17:49:13.873Z,28.53
2022-08-14T17:51:14.611Z,28.54
2022-08-14T17:53:53.429Z,28.54
2022-08-14T17:56:30.790Z,28.54
2022-08-14T17:59:04.137Z,28.55
2022-08-14T18:01:37.947Z,28.51
2022-08-14T18:04:27.874Z,28.52
2022-08-14T18:07:06.043Z,28.55
2022-08-14T18:09:56.339Z,28.55
2022-08-14T18:12:32.854Z,28.55
2022-08-14T18:15:15.950Z,28.59
2022-08-14T18:17:50.639Z,28.63
2022-08-14T18:21:24.679Z,28.61
2022-08-14T18:23:13.661Z,28.74
2022-08-14T18:25:46.621Z,28.77
2022-08-14T18:28:18.343Z,28.79
2022-08-14T18:31:42.282Z,28.81
2022-08-14T18:34:30.793Z,28.81
2022-08-14T18:37:17.460Z,28.79
2022-08-14T18:40:02.325Z,28.77
2022-08-14T18:42:45.777Z,28.74
2022-08-14T18:45:28.744Z,28.70
2022-08-14T18:48:15.741Z,28.71
2022-08-14T18:51:12.820Z,28.68
2022-08-14T18:54:10.141Z,28.65
2022-08-14T18:56:58.503Z,28.66
2022-08-14T18:59:35.508Z,28.64
2022-08-14T19:02:43.769Z,28.63
2022-08-14T19:05:11.797Z,28.61
2022-08-14T19:07:40.951Z,28.61
2022-08-14T19:10:10.270Z,28.60
2022-08-14T19:13:11.643Z,28.60
2022-08-14T19:15:42.604Z,28.59
2022-08-14T19:18:27.999Z,28.57
2022-08-14T19:20:58.164Z,28.58
2022-08-14T19:23:42.081Z,28.60
2022-08-14T19:26:33.939Z,28.58
2022-08-14T19:29:20.729Z,28.58
2022-08-14T19:31:55.691Z,28.58
2022-08-14T19:34:40.001Z,28.56
2022-08-14T19:37:10.135Z,28.55
2022-08-14T19:39:49.187Z,28.55
2022-08-14T19:42:28.417Z,28.56
2022-08-14T19:44:58.526Z,28.54
2022-08-14T19:47:38.530Z,28.54
2022-08-14T19:50:37.714Z,28.54
2022-08-14T19:53:11.482Z,28.53
2022-08-14T19:55:45.336Z,28.53
2022-08-14T19:58:14.077Z,28.53
2022-08-14T20:00:51.784Z,28.36
2022-08-14T20:03:24.167Z,28.54
2022-08-14T20:06:05.594Z,28.43
2022-08-14T20:10:58.746Z,28.53
2022-08-14T20:12:01.098Z,28.52
2022-08-14T20:14:20.396Z,28.53
2022-08-14T20:17:03.215Z,28.52
2022-08-14T20:19:37.539Z,28.52
2022-08-14T20:22:37.237Z,28.30
2022-08-14T20:24:57.707Z,28.42
2022-08-14T20:27:33.976Z,28.49
2022-08-14T20:30:33.979Z,28.51
2022-08-14T20:33:04.573Z,28.51
2022-08-14T20:35:36.983Z,28.50
2022-08-14T20:38:29.773Z,28.43
2022-08-14T20:41:00.185Z,28.50
2022-08-14T20:43:45.289Z,28.50
2022-08-14T20:46:16.257Z,28.51
2022-08-14T20:48:52.667Z,28.51
2022-08-14T20:51:24.314Z,28.47
2022-08-14T20:54:00.874Z,28.47
2022-08-14T20:56:30.613Z,28.46
2022-08-14T20:59:07.574Z,28.49
2022-08-14T21:01:44.810Z,28.50
2022-08-14T21:04:29.326Z,28.50
2022-08-14T21:07:24.856Z,28.12
2022-08-14T21:10:06.579Z,28.46
2022-08-14T21:12:36.102Z,28.47
2022-08-14T21:15:09.985Z,28.49
2022-08-14T21:17:41.501Z,28.50
2022-08-14T21:20:26.304Z,28.51
2022-08-14T21:22:56.588Z,28.50
2022-08-14T21:25:29.056Z,28.50
2022-08-14T21:28:00.961Z,28.51
2022-08-14T21:30:47.113Z,28.51
2022-08-14T21:33:20.606Z,28.51
2022-08-14T21:35:49.782Z,28.50
2022-08-14T21:38:33.805Z,28.50
2022-08-14T21:41:02.777Z,28.50
2022-08-14T21:43:54.506Z,28.50
2022-08-14T21:46:22.655Z,28.49
2022-08-14T21:48:53.776Z,28.49
2022-08-14T21:51:53.577Z,28.49
2022-08-14T21:54:30.429Z,28.40
2022-08-14T21:56:58.122Z,28.48
2022-08-14T21:59:29.210Z,28.48
2022-08-14T22:02:00.329Z,28.47
2022-08-14T22:04:34.923Z,28.48
2022-08-14T22:07:10.052Z,28.29
2022-08-14T22:09:38.445Z,28.48
2022-08-14T22:12:11.364Z,28.47
2022-08-14T22:15:00.230Z,28.48
2022-08-14T22:17:32.386Z,28.47
2022-08-14T22:20:05.100Z,28.31
2022-08-14T22:22:33.122Z,28.47
2022-08-14T22:25:01.283Z,28.31
2022-08-14T22:27:32.371Z,28.47
2022-08-14T22:30:00.986Z,28.48
2022-08-14T22:32:35.259Z,28.47
2022-08-14T22:35:18.096Z,28.48
2022-08-14T22:37:46.345Z,28.48
2022-08-14T22:40:57.755Z,28.44
2022-08-14T22:43:22.304Z,28.47
2022-08-14T22:45:55.471Z,28.48
2022-08-14T22:48:24.128Z,28.43
2022-08-14T22:50:53.898Z,28.46
2022-08-14T22:53:21.949Z,28.47
2022-08-14T22:55:51.996Z,28.47
2022-08-14T22:58:31.768Z,28.46
2022-08-14T23:01:04.645Z,28.47
2022-08-14T23:03:36.278Z,28.43
2022-08-14T23:07:04.375Z,28.46
2022-08-14T23:08:59.070Z,28.47
2022-08-14T23:11:29.175Z,28.45
2022-08-14T23:13:57.108Z,28.21
2022-08-14T23:16:28.903Z,28.46
2022-08-14T23:18:58.359Z,28.45
2022-08-14T23:21:28.856Z,28.45
2022-08-14T23:23:58.459Z,28.46
2022-08-14T23:26:47.762Z,28.46
2022-08-14T23:29:17.979Z,28.45
2022-08-14T23:31:45.953Z,28.45
2022-08-14T23:34:20.823Z,28.46
2022-08-14T23:36:55.970Z,28.46
2022-08-14T23:39:30.507Z,28.46
2022-08-14T23:42:02.519Z,28.46
2022-08-14T23:44:34.997Z,28.38
2022-08-14T23:47:10.644Z,28.45
2022-08-14T23:50:01.179Z,28.45
2022-08-14T23:52:56.256Z,28.45
2022-08-14T23:55:18.096Z,28.45
2022-08-14T23:57:57.573Z,28.46
